map of KOWP home
KOWP - Airport
Location
City:  Sand Springs, Oklahoma, United States
Name:William R Pogue Municipal Airport
ICAO:KOWP
FAA LID:OWP

Details
Type:Airport (Airfield)
Use:Public/Civil
Latitude:3610'31"N (36.175278)
Longitude:9609'07"W (-96.151832)
Datum:WGS 1984
Elevation:892 ft (272 m)
Variation:2.74E (WMM2015 magnetic declination)
-0.10 annual change
Runways:1
Longest:5799 × 100 ft (1768 × 30.5 m), paved

Time
Time Zone:UTC-6 (DST-5)
Local Time:

Weather
METAR:KOWP 190315Z AUTO 32003KT 10SM BKN018 OVC038 02/M02 A3022 RMK AO2 T00211017

Related Locations
Nearby:
Farthest:RRG: 10758 mi / 17314 km
Plaine Corail [Sir Gatan Duval Airport (Plaine Corail Airport)], Rodrigues Island, MU

Find:

   beyond  
but within

Other Information
Maps:
NOTAMs:
Links:
Sources:

  
  • flag of United States
  • flag of Oklahoma
  

Sectional Chart

Flight Planning
at skyvector.com

Satellite Image

Google Maps Satellite view

 

Copyright © 2004-2018 Karl L. Swartz. All rights reserved.
The Great Circle Mapper name and logo are trademarks of the Great Circle Mapper.
All other trademarks mentioned herein belong to their respective owners.
Please see credits for attibutions and further copyright information.

  Follow gcmap on Facebook Follow gcmap on Twitter Follow gcmap on Google+ GCmap on LinkedIn

hCard Microformat

Geo Microformat